Terminal Aerodrome Forecast
Issued by NWS Green Bay, WI

Home | Current Version | Previous Version | Graphics & Text | Print | Product List | Glossary On
Versions: 1 2 3 4 5 6 7 8 9 10 11 12 13 14 15 16 17 18 19 20 21 22 23 24 25 26 27 28 29
000
FTUS43 KGRB 282325
TAFGRB
TAF
KGRB 282325Z 2900/2924 17010G17KT P6SM SCT040 BKN250
     FM290100 16008KT P6SM SCT025 BKN040
     FM290700 20007KT 5SM BR VCSH BKN035
      TEMPO 2907/2911 2SM TSRA OVC020CB
     FM291300 26013G25KT P6SM SCT100
     FM291500 27018G32KT P6SM SCT060 SCT100=

USA.gov is the U.S. government's official web portal to all federal, state and local government web resources and services.